Webcam Richtung Westen

Webcam27

Webcam Richtung Norden

Webcam36

Webcam Richtung Osten

Webcam09

Wetter(Würzburg):
090330Z AUTO 23002G03KT 9000 SCT041 M01/M02 Q1006
		
Fri 9.12.2022, 03:30 UTC

Sichtweite bis zu 9000 m
Wind aus 230° mit 02kt, in Böen bis zu 03kt
einige Wolken (3-4 Achtel) bei 4100 Fuß
Temperatur: -1 °C
Taupunkt: -2 °C
QNH: 1006 hPa
                         Heute        Morgen
                         09.12        10.12
--------------------------------------------
Beginn der Dämmerung     06:27        06:28
Sonnenaufgang            07:05        07:06
Sonnenuntergang          15:19        15:19
Ende der Dämmerung       15:57        15:57

Alle Zeiten in UTC